sensor_id;sensor_type;location;lat;lon;timestamp;P1;durP1;ratioP1;P2;durP2;ratioP2
44766;SDS011;30487;48.716;9.272;2024-03-08T00:00:26;24.88;;;13.40;;
44766;SDS011;30487;48.716;9.272;2024-03-08T00:02:52;26.52;;;13.27;;
44766;SDS011;30487;48.716;9.272;2024-03-08T00:05:19;24.20;;;12.75;;
44766;SDS011;30487;48.716;9.272;2024-03-08T00:07:45;23.90;;;12.65;;
44766;SDS011;30487;48.716;9.272;2024-03-08T00:10:11;27.13;;;13.90;;
44766;SDS011;30487;48.716;9.272;2024-03-08T00:12:41;28.60;;;13.23;;
44766;SDS011;30487;48.716;9.272;2024-03-08T00:15:09;24.52;;;13.00;;
44766;SDS011;30487;48.716;9.272;2024-03-08T00:17:39;25.58;;;14.25;;
44766;SDS011;30487;48.716;9.272;2024-03-08T00:20:05;24.45;;;13.55;;
44766;SDS011;30487;48.716;9.272;2024-03-08T00:22:36;26.38;;;13.75;;
44766;SDS011;30487;48.716;9.272;2024-03-08T00:25:03;23.98;;;12.98;;
44766;SDS011;30487;48.716;9.272;2024-03-08T00:27:29;25.98;;;13.40;;
44766;SDS011;30487;48.716;9.272;2024-03-08T00:29:58;22.67;;;13.10;;
44766;SDS011;30487;48.716;9.272;2024-03-08T00:32:24;22.92;;;12.88;;
44766;SDS011;30487;48.716;9.272;2024-03-08T00:34:50;24.98;;;14.02;;
44766;SDS011;30487;48.716;9.272;2024-03-08T00:37:17;23.98;;;13.32;;
44766;SDS011;30487;48.716;9.272;2024-03-08T00:39:42;25.08;;;13.52;;
44766;SDS011;30487;48.716;9.272;2024-03-08T00:42:08;25.85;;;12.90;;
44766;SDS011;30487;48.716;9.272;2024-03-08T00:44:34;24.27;;;13.55;;
44766;SDS011;30487;48.716;9.272;2024-03-08T00:46:59;29.50;;;14.00;;
44766;SDS011;30487;48.716;9.272;2024-03-08T00:49:25;27.33;;;12.88;;
44766;SDS011;30487;48.716;9.272;2024-03-08T00:51:50;26.02;;;13.55;;
44766;SDS011;30487;48.716;9.272;2024-03-08T00:54:16;24.35;;;13.50;;
44766;SDS011;30487;48.716;9.272;2024-03-08T00:56:42;23.00;;;12.70;;
44766;SDS011;30487;48.716;9.272;2024-03-08T00:59:07;22.70;;;12.88;;
44766;SDS011;30487;48.716;9.272;2024-03-08T01:01:33;22.08;;;12.75;;
44766;SDS011;30487;48.716;9.272;2024-03-08T01:03:59;25.27;;;13.65;;
44766;SDS011;30487;48.716;9.272;2024-03-08T01:06:24;25.67;;;13.45;;
44766;SDS011;30487;48.716;9.272;2024-03-08T01:08:50;25.88;;;13.70;;
44766;SDS011;30487;48.716;9.272;2024-03-08T01:11:17;21.13;;;12.57;;
44766;SDS011;30487;48.716;9.272;2024-03-08T01:13:44;23.63;;;13.52;;
44766;SDS011;30487;48.716;9.272;2024-03-08T01:16:12;25.30;;;13.55;;
44766;SDS011;30487;48.716;9.272;2024-03-08T01:18:38;25.05;;;13.00;;
44766;SDS011;30487;48.716;9.272;2024-03-08T01:21:03;25.48;;;14.73;;
44766;SDS011;30487;48.716;9.272;2024-03-08T01:23:29;26.30;;;14.05;;
44766;SDS011;30487;48.716;9.272;2024-03-08T01:25:55;24.58;;;13.23;;
44766;SDS011;30487;48.716;9.272;2024-03-08T01:28:23;26.48;;;13.38;;
44766;SDS011;30487;48.716;9.272;2024-03-08T01:30:51;24.88;;;13.60;;
44766;SDS011;30487;48.716;9.272;2024-03-08T01:33:21;24.85;;;13.02;;
44766;SDS011;30487;48.716;9.272;2024-03-08T01:35:48;22.80;;;12.52;;
44766;SDS011;30487;48.716;9.272;2024-03-08T01:38:13;21.23;;;12.73;;
44766;SDS011;30487;48.716;9.272;2024-03-08T01:40:39;24.73;;;12.85;;
44766;SDS011;30487;48.716;9.272;2024-03-08T01:43:16;23.52;;;12.50;;
44766;SDS011;30487;48.716;9.272;2024-03-08T01:45:42;24.70;;;12.90;;
44766;SDS011;30487;48.716;9.272;2024-03-08T01:48:08;24.33;;;13.23;;
44766;SDS011;30487;48.716;9.272;2024-03-08T01:50:33;21.60;;;12.32;;
44766;SDS011;30487;48.716;9.272;2024-03-08T01:53:01;22.27;;;12.25;;
44766;SDS011;30487;48.716;9.272;2024-03-08T01:55:28;23.67;;;12.45;;
44766;SDS011;30487;48.716;9.272;2024-03-08T01:57:53;22.00;;;11.98;;
44766;SDS011;30487;48.716;9.272;2024-03-08T02:00:19;23.42;;;12.93;;
44766;SDS011;30487;48.716;9.272;2024-03-08T02:02:46;21.90;;;11.88;;
44766;SDS011;30487;48.716;9.272;2024-03-08T02:05:12;21.77;;;11.77;;
44766;SDS011;30487;48.716;9.272;2024-03-08T02:07:40;22.10;;;11.57;;
44766;SDS011;30487;48.716;9.272;2024-03-08T02:10:09;23.33;;;11.93;;
44766;SDS011;30487;48.716;9.272;2024-03-08T02:12:35;22.65;;;12.30;;
44766;SDS011;30487;48.716;9.272;2024-03-08T02:15:01;21.15;;;11.77;;
44766;SDS011;30487;48.716;9.272;2024-03-08T02:17:27;21.80;;;11.70;;
44766;SDS011;30487;48.716;9.272;2024-03-08T02:19:53;22.40;;;11.57;;
44766;SDS011;30487;48.716;9.272;2024-03-08T02:22:18;21.83;;;11.40;;
44766;SDS011;30487;48.716;9.272;2024-03-08T02:24:45;20.70;;;11.85;;
44766;SDS011;30487;48.716;9.272;2024-03-08T02:27:10;21.55;;;11.07;;
44766;SDS011;30487;48.716;9.272;2024-03-08T02:29:36;19.35;;;11.32;;
44766;SDS011;30487;48.716;9.272;2024-03-08T02:32:05;22.38;;;11.95;;
44766;SDS011;30487;48.716;9.272;2024-03-08T02:34:31;21.55;;;11.13;;
44766;SDS011;30487;48.716;9.272;2024-03-08T02:36:57;20.05;;;11.02;;
44766;SDS011;30487;48.716;9.272;2024-03-08T02:39:22;21.65;;;11.40;;
44766;SDS011;30487;48.716;9.272;2024-03-08T02:41:48;20.02;;;11.13;;
44766;SDS011;30487;48.716;9.272;2024-03-08T02:44:13;20.00;;;11.52;;
44766;SDS011;30487;48.716;9.272;2024-03-08T02:46:40;21.67;;;11.07;;
44766;SDS011;30487;48.716;9.272;2024-03-08T02:49:05;18.63;;;10.75;;
44766;SDS011;30487;48.716;9.272;2024-03-08T02:51:32;23.20;;;11.15;;
44766;SDS011;30487;48.716;9.272;2024-03-08T02:54:00;20.83;;;11.20;;
44766;SDS011;30487;48.716;9.272;2024-03-08T02:56:25;24.38;;;12.05;;
44766;SDS011;30487;48.716;9.272;2024-03-08T02:58:51;20.30;;;10.98;;
44766;SDS011;30487;48.716;9.272;2024-03-08T03:01:17;19.67;;;11.10;;
44766;SDS011;30487;48.716;9.272;2024-03-08T03:03:45;21.55;;;12.10;;
44766;SDS011;30487;48.716;9.272;2024-03-08T03:06:12;24.00;;;11.63;;
44766;SDS011;30487;48.716;9.272;2024-03-08T03:08:37;21.10;;;11.38;;
44766;SDS011;30487;48.716;9.272;2024-03-08T03:11:03;21.38;;;11.55;;
44766;SDS011;30487;48.716;9.272;2024-03-08T03:13:29;23.27;;;12.40;;
44766;SDS011;30487;48.716;9.272;2024-03-08T03:15:55;19.50;;;10.88;;
44766;SDS011;30487;48.716;9.272;2024-03-08T03:18:22;20.50;;;11.23;;
44766;SDS011;30487;48.716;9.272;2024-03-08T03:20:48;22.15;;;11.75;;
44766;SDS011;30487;48.716;9.272;2024-03-08T03:23:14;20.65;;;11.57;;
44766;SDS011;30487;48.716;9.272;2024-03-08T03:25:45;21.05;;;11.98;;
44766;SDS011;30487;48.716;9.272;2024-03-08T03:28:11;22.55;;;11.98;;
44766;SDS011;30487;48.716;9.272;2024-03-08T03:30:39;23.17;;;12.38;;
44766;SDS011;30487;48.716;9.272;2024-03-08T03:33:05;21.85;;;11.88;;
44766;SDS011;30487;48.716;9.272;2024-03-08T03:35:32;23.05;;;11.95;;
44766;SDS011;30487;48.716;9.272;2024-03-08T03:37:57;22.58;;;11.93;;
44766;SDS011;30487;48.716;9.272;2024-03-08T03:40:30;22.05;;;12.23;;
44766;SDS011;30487;48.716;9.272;2024-03-08T03:42:56;22.20;;;11.73;;
44766;SDS011;30487;48.716;9.272;2024-03-08T03:45:22;23.05;;;12.48;;
44766;SDS011;30487;48.716;9.272;2024-03-08T03:47:48;26.15;;;13.63;;
44766;SDS011;30487;48.716;9.272;2024-03-08T03:50:14;22.40;;;12.95;;
44766;SDS011;30487;48.716;9.272;2024-03-08T03:52:39;24.15;;;13.38;;
44766;SDS011;30487;48.716;9.272;2024-03-08T03:55:07;25.27;;;13.00;;
44766;SDS011;30487;48.716;9.272;2024-03-08T03:57:33;23.92;;;11.88;;
44766;SDS011;30487;48.716;9.272;2024-03-08T03:59:58;23.35;;;12.68;;
44766;SDS011;30487;48.716;9.272;2024-03-08T04:02:24;21.60;;;12.25;;
44766;SDS011;30487;48.716;9.272;2024-03-08T04:04:51;25.52;;;12.48;;
44766;SDS011;30487;48.716;9.272;2024-03-08T04:07:17;24.20;;;13.13;;
44766;SDS011;30487;48.716;9.272;2024-03-08T04:09:43;21.48;;;12.60;;
44766;SDS011;30487;48.716;9.272;2024-03-08T04:12:08;23.48;;;12.70;;
44766;SDS011;30487;48.716;9.272;2024-03-08T04:14:34;26.33;;;13.52;;
44766;SDS011;30487;48.716;9.272;2024-03-08T04:17:00;23.63;;;12.93;;
44766;SDS011;30487;48.716;9.272;2024-03-08T04:19:27;23.25;;;12.25;;
44766;SDS011;30487;48.716;9.272;2024-03-08T04:21:53;21.83;;;11.95;;
44766;SDS011;30487;48.716;9.272;2024-03-08T04:24:18;22.80;;;12.85;;
44766;SDS011;30487;48.716;9.272;2024-03-08T04:26:45;23.63;;;12.15;;
44766;SDS011;30487;48.716;9.272;2024-03-08T04:29:11;22.73;;;12.55;;
44766;SDS011;30487;48.716;9.272;2024-03-08T04:31:39;22.63;;;12.68;;
44766;SDS011;30487;48.716;9.272;2024-03-08T04:34:05;21.70;;;12.80;;
44766;SDS011;30487;48.716;9.272;2024-03-08T04:36:31;23.90;;;12.65;;
44766;SDS011;30487;48.716;9.272;2024-03-08T04:38:56;23.67;;;13.05;;
44766;SDS011;30487;48.716;9.272;2024-03-08T04:41:22;22.70;;;12.43;;
44766;SDS011;30487;48.716;9.272;2024-03-08T04:43:48;23.02;;;13.18;;
44766;SDS011;30487;48.716;9.272;2024-03-08T04:46:14;24.17;;;12.60;;
44766;SDS011;30487;48.716;9.272;2024-03-08T04:48:41;23.80;;;13.05;;
44766;SDS011;30487;48.716;9.272;2024-03-08T04:51:07;24.13;;;12.95;;
44766;SDS011;30487;48.716;9.272;2024-03-08T04:53:33;22.02;;;12.90;;
44766;SDS011;30487;48.716;9.272;2024-03-08T04:55:59;24.63;;;12.75;;
44766;SDS011;30487;48.716;9.272;2024-03-08T04:58:25;25.17;;;13.75;;
44766;SDS011;30487;48.716;9.272;2024-03-08T05:00:50;24.33;;;13.10;;
44766;SDS011;30487;48.716;9.272;2024-03-08T05:03:16;24.77;;;13.15;;
44766;SDS011;30487;48.716;9.272;2024-03-08T05:05:42;27.77;;;15.18;;
44766;SDS011;30487;48.716;9.272;2024-03-08T05:08:07;26.98;;;14.85;;
44766;SDS011;30487;48.716;9.272;2024-03-08T05:10:33;27.02;;;14.60;;
44766;SDS011;30487;48.716;9.272;2024-03-08T05:12:58;26.83;;;14.18;;
44766;SDS011;30487;48.716;9.272;2024-03-08T05:15:24;24.90;;;13.55;;
44766;SDS011;30487;48.716;9.272;2024-03-08T05:17:49;25.52;;;13.25;;
44766;SDS011;30487;48.716;9.272;2024-03-08T05:20:15;24.27;;;12.82;;
44766;SDS011;30487;48.716;9.272;2024-03-08T05:22:42;24.00;;;12.73;;
44766;SDS011;30487;48.716;9.272;2024-03-08T05:25:08;22.80;;;13.00;;
44766;SDS011;30487;48.716;9.272;2024-03-08T05:27:34;23.08;;;13.07;;
44766;SDS011;30487;48.716;9.272;2024-03-08T05:30:01;24.85;;;13.55;;
44766;SDS011;30487;48.716;9.272;2024-03-08T05:32:29;25.52;;;13.48;;
44766;SDS011;30487;48.716;9.272;2024-03-08T05:34:54;23.33;;;13.13;;
44766;SDS011;30487;48.716;9.272;2024-03-08T05:37:20;24.10;;;13.25;;
44766;SDS011;30487;48.716;9.272;2024-03-08T05:39:45;22.88;;;12.93;;
44766;SDS011;30487;48.716;9.272;2024-03-08T05:42:11;23.02;;;12.80;;
44766;SDS011;30487;48.716;9.272;2024-03-08T05:44:36;23.98;;;13.70;;
44766;SDS011;30487;48.716;9.272;2024-03-08T05:47:02;28.95;;;14.07;;
44766;SDS011;30487;48.716;9.272;2024-03-08T05:49:28;23.70;;;13.02;;
44766;SDS011;30487;48.716;9.272;2024-03-08T05:51:53;25.17;;;14.35;;
44766;SDS011;30487;48.716;9.272;2024-03-08T05:54:19;26.02;;;13.50;;
44766;SDS011;30487;48.716;9.272;2024-03-08T05:56:47;23.98;;;13.68;;
44766;SDS011;30487;48.716;9.272;2024-03-08T05:59:12;26.38;;;13.75;;
44766;SDS011;30487;48.716;9.272;2024-03-08T06:01:38;23.08;;;13.23;;
44766;SDS011;30487;48.716;9.272;2024-03-08T06:04:05;23.25;;;13.27;;
44766;SDS011;30487;48.716;9.272;2024-03-08T06:06:32;27.17;;;14.32;;
44766;SDS011;30487;48.716;9.272;2024-03-08T06:08:58;25.20;;;14.30;;
44766;SDS011;30487;48.716;9.272;2024-03-08T06:11:34;24.08;;;13.85;;
44766;SDS011;30487;48.716;9.272;2024-03-08T06:13:59;24.23;;;13.18;;
44766;SDS011;30487;48.716;9.272;2024-03-08T06:16:28;26.15;;;13.88;;
44766;SDS011;30487;48.716;9.272;2024-03-08T06:18:55;24.42;;;13.63;;
44766;SDS011;30487;48.716;9.272;2024-03-08T06:21:24;25.45;;;13.20;;
44766;SDS011;30487;48.716;9.272;2024-03-08T06:23:53;27.38;;;14.57;;
44766;SDS011;30487;48.716;9.272;2024-03-08T06:26:20;25.38;;;14.27;;
44766;SDS011;30487;48.716;9.272;2024-03-08T06:28:47;25.58;;;13.98;;
44766;SDS011;30487;48.716;9.272;2024-03-08T06:31:13;23.42;;;13.32;;
44766;SDS011;30487;48.716;9.272;2024-03-08T06:33:39;24.02;;;13.85;;
44766;SDS011;30487;48.716;9.272;2024-03-08T06:36:05;24.10;;;13.45;;
44766;SDS011;30487;48.716;9.272;2024-03-08T06:38:30;26.73;;;14.25;;
44766;SDS011;30487;48.716;9.272;2024-03-08T06:40:56;24.70;;;13.20;;
44766;SDS011;30487;48.716;9.272;2024-03-08T06:43:22;25.02;;;13.55;;
44766;SDS011;30487;48.716;9.272;2024-03-08T06:45:50;41.00;;;19.25;;
44766;SDS011;30487;48.716;9.272;2024-03-08T06:48:16;26.90;;;14.43;;
44766;SDS011;30487;48.716;9.272;2024-03-08T06:50:45;26.63;;;14.20;;
44766;SDS011;30487;48.716;9.272;2024-03-08T06:53:12;25.92;;;13.55;;
44766;SDS011;30487;48.716;9.272;2024-03-08T06:55:38;26.42;;;14.05;;
44766;SDS011;30487;48.716;9.272;2024-03-08T06:58:04;25.88;;;13.98;;
44766;SDS011;30487;48.716;9.272;2024-03-08T07:00:31;25.17;;;13.60;;
44766;SDS011;30487;48.716;9.272;2024-03-08T07:02:57;26.33;;;14.13;;
44766;SDS011;30487;48.716;9.272;2024-03-08T07:05:26;24.92;;;13.80;;
44766;SDS011;30487;48.716;9.272;2024-03-08T07:07:52;24.60;;;13.30;;
44766;SDS011;30487;48.716;9.272;2024-03-08T07:10:19;24.75;;;12.98;;
44766;SDS011;30487;48.716;9.272;2024-03-08T07:12:51;24.40;;;13.63;;
44766;SDS011;30487;48.716;9.272;2024-03-08T07:15:18;23.02;;;13.48;;
44766;SDS011;30487;48.716;9.272;2024-03-08T07:17:45;26.60;;;14.65;;
44766;SDS011;30487;48.716;9.272;2024-03-08T07:20:12;24.90;;;13.80;;
44766;SDS011;30487;48.716;9.272;2024-03-08T07:22:39;22.80;;;13.18;;
44766;SDS011;30487;48.716;9.272;2024-03-08T07:25:05;23.38;;;13.15;;
44766;SDS011;30487;48.716;9.272;2024-03-08T07:27:52;27.08;;;14.15;;
44766;SDS011;30487;48.716;9.272;2024-03-08T07:30:21;23.95;;;13.43;;
44766;SDS011;30487;48.716;9.272;2024-03-08T07:33:09;24.95;;;13.63;;
44766;SDS011;30487;48.716;9.272;2024-03-08T07:35:38;24.23;;;13.70;;
44766;SDS011;30487;48.716;9.272;2024-03-08T07:38:05;25.38;;;13.95;;
44766;SDS011;30487;48.716;9.272;2024-03-08T07:40:36;26.75;;;13.32;;
44766;SDS011;30487;48.716;9.272;2024-03-08T07:43:06;26.52;;;12.70;;
44766;SDS011;30487;48.716;9.272;2024-03-08T07:45:32;21.98;;;12.50;;
44766;SDS011;30487;48.716;9.272;2024-03-08T07:47:58;24.75;;;13.40;;
44766;SDS011;30487;48.716;9.272;2024-03-08T07:50:23;25.23;;;13.98;;
44766;SDS011;30487;48.716;9.272;2024-03-08T07:52:49;25.00;;;13.45;;
44766;SDS011;30487;48.716;9.272;2024-03-08T07:55:15;22.60;;;12.63;;
44766;SDS011;30487;48.716;9.272;2024-03-08T07:57:40;25.30;;;12.80;;
44766;SDS011;30487;48.716;9.272;2024-03-08T08:00:07;24.95;;;13.20;;
44766;SDS011;30487;48.716;9.272;2024-03-08T08:02:34;21.80;;;12.52;;
44766;SDS011;30487;48.716;9.272;2024-03-08T08:05:00;22.45;;;12.38;;
44766;SDS011;30487;48.716;9.272;2024-03-08T08:07:26;22.27;;;12.73;;
44766;SDS011;30487;48.716;9.272;2024-03-08T08:09:52;25.63;;;13.45;;
44766;SDS011;30487;48.716;9.272;2024-03-08T08:12:18;24.98;;;12.77;;
44766;SDS011;30487;48.716;9.272;2024-03-08T08:14:44;26.42;;;13.60;;
44766;SDS011;30487;48.716;9.272;2024-03-08T08:17:09;25.75;;;13.13;;
44766;SDS011;30487;48.716;9.272;2024-03-08T08:19:36;26.63;;;13.50;;
44766;SDS011;30487;48.716;9.272;2024-03-08T08:22:01;24.58;;;13.82;;
44766;SDS011;30487;48.716;9.272;2024-03-08T08:24:27;22.13;;;12.27;;
44766;SDS011;30487;48.716;9.272;2024-03-08T08:26:53;24.13;;;13.23;;
44766;SDS011;30487;48.716;9.272;2024-03-08T08:29:19;24.13;;;13.82;;
44766;SDS011;30487;48.716;9.272;2024-03-08T08:31:45;22.77;;;13.13;;
44766;SDS011;30487;48.716;9.272;2024-03-08T08:34:12;21.83;;;12.40;;
44766;SDS011;30487;48.716;9.272;2024-03-08T08:36:38;23.35;;;12.93;;
44766;SDS011;30487;48.716;9.272;2024-03-08T08:39:04;23.58;;;13.13;;
44766;SDS011;30487;48.716;9.272;2024-03-08T08:41:37;22.57;;;12.90;;
44766;SDS011;30487;48.716;9.272;2024-03-08T08:44:02;23.45;;;12.93;;
44766;SDS011;30487;48.716;9.272;2024-03-08T08:46:28;22.65;;;12.52;;
44766;SDS011;30487;48.716;9.272;2024-03-08T08:48:54;24.75;;;13.13;;
44766;SDS011;30487;48.716;9.272;2024-03-08T08:51:19;23.33;;;12.68;;
44766;SDS011;30487;48.716;9.272;2024-03-08T08:53:45;26.20;;;13.63;;
44766;SDS011;30487;48.716;9.272;2024-03-08T08:56:12;22.42;;;12.43;;
44766;SDS011;30487;48.716;9.272;2024-03-08T08:58:41;23.98;;;12.15;;
44766;SDS011;30487;48.716;9.272;2024-03-08T09:01:10;23.98;;;12.95;;
44766;SDS011;30487;48.716;9.272;2024-03-08T09:03:36;24.95;;;12.48;;
44766;SDS011;30487;48.716;9.272;2024-03-08T09:06:03;23.80;;;12.82;;
44766;SDS011;30487;48.716;9.272;2024-03-08T09:08:29;21.95;;;12.27;;
44766;SDS011;30487;48.716;9.272;2024-03-08T09:10:55;22.73;;;12.27;;
44766;SDS011;30487;48.716;9.272;2024-03-08T09:13:21;22.25;;;12.13;;
44766;SDS011;30487;48.716;9.272;2024-03-08T09:15:46;22.10;;;12.32;;
44766;SDS011;30487;48.716;9.272;2024-03-08T09:18:12;29.15;;;13.63;;
44766;SDS011;30487;48.716;9.272;2024-03-08T09:20:37;22.73;;;12.80;;
44766;SDS011;30487;48.716;9.272;2024-03-08T09:23:03;22.23;;;12.23;;
44766;SDS011;30487;48.716;9.272;2024-03-08T09:25:29;21.52;;;11.07;;
44766;SDS011;30487;48.716;9.272;2024-03-08T09:27:55;23.85;;;12.48;;
44766;SDS011;30487;48.716;9.272;2024-03-08T09:30:20;20.73;;;11.98;;
44766;SDS011;30487;48.716;9.272;2024-03-08T09:32:46;24.80;;;12.30;;
44766;SDS011;30487;48.716;9.272;2024-03-08T09:35:12;21.60;;;11.98;;
44766;SDS011;30487;48.716;9.272;2024-03-08T09:37:38;21.73;;;12.25;;
44766;SDS011;30487;48.716;9.272;2024-03-08T09:40:04;24.83;;;11.77;;
44766;SDS011;30487;48.716;9.272;2024-03-08T09:42:34;21.15;;;11.25;;
44766;SDS011;30487;48.716;9.272;2024-03-08T09:45:03;20.42;;;11.98;;
44766;SDS011;30487;48.716;9.272;2024-03-08T09:47:32;20.85;;;11.73;;
44766;SDS011;30487;48.716;9.272;2024-03-08T09:50:04;21.85;;;11.20;;
44766;SDS011;30487;48.716;9.272;2024-03-08T09:52:34;21.67;;;11.32;;
44766;SDS011;30487;48.716;9.272;2024-03-08T09:55:02;21.15;;;11.75;;
44766;SDS011;30487;48.716;9.272;2024-03-08T09:57:32;26.50;;;12.20;;
44766;SDS011;30487;48.716;9.272;2024-03-08T09:59:59;19.17;;;10.45;;
44766;SDS011;30487;48.716;9.272;2024-03-08T10:02:24;20.23;;;10.85;;
44766;SDS011;30487;48.716;9.272;2024-03-08T10:04:51;18.92;;;11.02;;
44766;SDS011;30487;48.716;9.272;2024-03-08T10:07:18;20.27;;;11.30;;
44766;SDS011;30487;48.716;9.272;2024-03-08T10:09:44;19.90;;;11.00;;
44766;SDS011;30487;48.716;9.272;2024-03-08T10:12:18;20.80;;;11.80;;
44766;SDS011;30487;48.716;9.272;2024-03-08T10:14:44;19.20;;;10.95;;
44766;SDS011;30487;48.716;9.272;2024-03-08T10:17:11;20.20;;;10.85;;
44766;SDS011;30487;48.716;9.272;2024-03-08T10:19:37;20.92;;;11.45;;
44766;SDS011;30487;48.716;9.272;2024-03-08T10:22:04;20.75;;;10.65;;
44766;SDS011;30487;48.716;9.272;2024-03-08T10:24:30;20.50;;;11.00;;
44766;SDS011;30487;48.716;9.272;2024-03-08T10:26:59;21.70;;;10.68;;
44766;SDS011;30487;48.716;9.272;2024-03-08T10:29:26;19.08;;;10.52;;
44766;SDS011;30487;48.716;9.272;2024-03-08T10:31:53;20.08;;;11.07;;
44766;SDS011;30487;48.716;9.272;2024-03-08T10:34:20;20.48;;;10.90;;
44766;SDS011;30487;48.716;9.272;2024-03-08T10:36:48;17.50;;;10.38;;
44766;SDS011;30487;48.716;9.272;2024-03-08T10:39:21;19.05;;;10.15;;
44766;SDS011;30487;48.716;9.272;2024-03-08T10:42:05;17.88;;;10.10;;
44766;SDS011;30487;48.716;9.272;2024-03-08T10:44:42;19.48;;;10.57;;
44766;SDS011;30487;48.716;9.272;2024-03-08T10:47:28;17.88;;;10.18;;
44766;SDS011;30487;48.716;9.272;2024-03-08T10:50:03;18.25;;;10.25;;
44766;SDS011;30487;48.716;9.272;2024-03-08T10:52:47;20.95;;;10.98;;
44766;SDS011;30487;48.716;9.272;2024-03-08T10:55:17;18.70;;;11.15;;
44766;SDS011;30487;48.716;9.272;2024-03-08T10:57:45;20.55;;;10.82;;
44766;SDS011;30487;48.716;9.272;2024-03-08T11:00:12;16.30;;;9.88;;
44766;SDS011;30487;48.716;9.272;2024-03-08T11:02:39;17.92;;;10.05;;
44766;SDS011;30487;48.716;9.272;2024-03-08T11:05:15;19.05;;;10.23;;
44766;SDS011;30487;48.716;9.272;2024-03-08T11:08:24;17.73;;;9.77;;
44766;SDS011;30487;48.716;9.272;2024-03-08T11:10:49;18.35;;;9.95;;
44766;SDS011;30487;48.716;9.272;2024-03-08T11:16:02;18.38;;;10.20;;
44766;SDS011;30487;48.716;9.272;2024-03-08T11:18:32;17.27;;;10.02;;
44766;SDS011;30487;48.716;9.272;2024-03-08T11:21:02;18.05;;;9.77;;
44766;SDS011;30487;48.716;9.272;2024-03-08T11:23:31;17.52;;;10.30;;
44766;SDS011;30487;48.716;9.272;2024-03-08T11:25:58;18.65;;;10.27;;
44766;SDS011;30487;48.716;9.272;2024-03-08T11:28:24;21.42;;;10.60;;
44766;SDS011;30487;48.716;9.272;2024-03-08T11:33:29;21.60;;;11.75;;
44766;SDS011;30487;48.716;9.272;2024-03-08T11:36:05;20.25;;;10.63;;
44766;SDS011;30487;48.716;9.272;2024-03-08T11:38:45;18.38;;;10.35;;
44766;SDS011;30487;48.716;9.272;2024-03-08T11:41:13;21.52;;;9.95;;
44766;SDS011;30487;48.716;9.272;2024-03-08T11:43:40;19.00;;;10.32;;
44766;SDS011;30487;48.716;9.272;2024-03-08T11:46:13;19.70;;;10.20;;
44766;SDS011;30487;48.716;9.272;2024-03-08T11:51:10;18.17;;;10.23;;
44766;SDS011;30487;48.716;9.272;2024-03-08T11:53:37;18.10;;;10.73;;
44766;SDS011;30487;48.716;9.272;2024-03-08T11:56:12;18.80;;;10.77;;
44766;SDS011;30487;48.716;9.272;2024-03-08T11:58:39;19.73;;;10.73;;
44766;SDS011;30487;48.716;9.272;2024-03-08T12:01:06;18.88;;;10.93;;
44766;SDS011;30487;48.716;9.272;2024-03-08T12:03:34;19.02;;;11.38;;
44766;SDS011;30487;48.716;9.272;2024-03-08T12:06:00;22.70;;;11.20;;
44766;SDS011;30487;48.716;9.272;2024-03-08T12:08:27;19.92;;;11.32;;
44766;SDS011;30487;48.716;9.272;2024-03-08T12:10:55;20.27;;;10.55;;
44766;SDS011;30487;48.716;9.272;2024-03-08T12:13:28;22.30;;;13.13;;
44766;SDS011;30487;48.716;9.272;2024-03-08T12:15:59;22.88;;;11.18;;
44766;SDS011;30487;48.716;9.272;2024-03-08T12:18:28;18.77;;;11.45;;
44766;SDS011;30487;48.716;9.272;2024-03-08T12:21:10;21.10;;;12.32;;
44766;SDS011;30487;48.716;9.272;2024-03-08T12:23:39;25.42;;;12.40;;
44766;SDS011;30487;48.716;9.272;2024-03-08T12:26:14;18.50;;;11.43;;
44766;SDS011;30487;48.716;9.272;2024-03-08T12:28:41;20.25;;;11.55;;
44766;SDS011;30487;48.716;9.272;2024-03-08T12:31:09;18.65;;;11.35;;
44766;SDS011;30487;48.716;9.272;2024-03-08T12:33:49;19.10;;;11.18;;
44766;SDS011;30487;48.716;9.272;2024-03-08T12:36:16;20.67;;;11.50;;
44766;SDS011;30487;48.716;9.272;2024-03-08T12:38:45;21.33;;;11.38;;
44766;SDS011;30487;48.716;9.272;2024-03-08T12:41:18;20.90;;;11.55;;
44766;SDS011;30487;48.716;9.272;2024-03-08T12:43:44;24.67;;;12.35;;
44766;SDS011;30487;48.716;9.272;2024-03-08T12:46:15;24.02;;;11.80;;
44766;SDS011;30487;48.716;9.272;2024-03-08T12:48:40;18.67;;;11.35;;
44766;SDS011;30487;48.716;9.272;2024-03-08T12:51:12;17.92;;;10.85;;
44766;SDS011;30487;48.716;9.272;2024-03-08T12:53:38;19.20;;;11.70;;
44766;SDS011;30487;48.716;9.272;2024-03-08T12:56:05;22.25;;;11.07;;
44766;SDS011;30487;48.716;9.272;2024-03-08T12:58:33;19.85;;;10.90;;
44766;SDS011;30487;48.716;9.272;2024-03-08T13:01:03;21.02;;;11.27;;
44766;SDS011;30487;48.716;9.272;2024-03-08T13:03:35;21.00;;;11.48;;
44766;SDS011;30487;48.716;9.272;2024-03-08T13:06:04;17.80;;;11.23;;
44766;SDS011;30487;48.716;9.272;2024-03-08T13:08:33;19.80;;;11.00;;
44766;SDS011;30487;48.716;9.272;2024-03-08T13:11:05;19.43;;;11.40;;
44766;SDS011;30487;48.716;9.272;2024-03-08T13:13:32;19.90;;;10.85;;
44766;SDS011;30487;48.716;9.272;2024-03-08T13:16:00;21.17;;;11.82;;
44766;SDS011;30487;48.716;9.272;2024-03-08T13:18:26;20.30;;;11.98;;
44766;SDS011;30487;48.716;9.272;2024-03-08T13:20:53;18.63;;;11.68;;
44766;SDS011;30487;48.716;9.272;2024-03-08T13:23:19;18.05;;;11.38;;
44766;SDS011;30487;48.716;9.272;2024-03-08T13:25:45;19.75;;;10.70;;
44766;SDS011;30487;48.716;9.272;2024-03-08T13:28:12;17.65;;;10.88;;
44766;SDS011;30487;48.716;9.272;2024-03-08T13:30:38;18.92;;;11.95;;
44766;SDS011;30487;48.716;9.272;2024-03-08T13:33:04;17.40;;;11.10;;
44766;SDS011;30487;48.716;9.272;2024-03-08T13:35:30;18.35;;;11.52;;
44766;SDS011;30487;48.716;9.272;2024-03-08T13:37:57;19.40;;;10.70;;
44766;SDS011;30487;48.716;9.272;2024-03-08T13:40:23;19.77;;;11.70;;
44766;SDS011;30487;48.716;9.272;2024-03-08T13:42:48;16.30;;;10.55;;
44766;SDS011;30487;48.716;9.272;2024-03-08T13:45:14;17.98;;;11.05;;
44766;SDS011;30487;48.716;9.272;2024-03-08T13:47:47;19.55;;;12.07;;
44766;SDS011;30487;48.716;9.272;2024-03-08T13:50:14;20.45;;;12.02;;
44766;SDS011;30487;48.716;9.272;2024-03-08T13:52:46;18.05;;;11.07;;
44766;SDS011;30487;48.716;9.272;2024-03-08T13:55:17;21.13;;;11.38;;
44766;SDS011;30487;48.716;9.272;2024-03-08T13:57:43;19.02;;;10.70;;
44766;SDS011;30487;48.716;9.272;2024-03-08T14:00:10;18.13;;;10.77;;
44766;SDS011;30487;48.716;9.272;2024-03-08T14:02:37;17.15;;;10.98;;
44766;SDS011;30487;48.716;9.272;2024-03-08T14:05:06;19.50;;;11.02;;
44766;SDS011;30487;48.716;9.272;2024-03-08T14:07:34;19.20;;;10.63;;
44766;SDS011;30487;48.716;9.272;2024-03-08T14:10:03;16.50;;;10.80;;
44766;SDS011;30487;48.716;9.272;2024-03-08T14:12:29;18.13;;;11.05;;
44766;SDS011;30487;48.716;9.272;2024-03-08T14:14:54;18.30;;;10.90;;
44766;SDS011;30487;48.716;9.272;2024-03-08T14:17:24;18.92;;;11.00;;
44766;SDS011;30487;48.716;9.272;2024-03-08T14:19:51;18.80;;;10.95;;
44766;SDS011;30487;48.716;9.272;2024-03-08T14:22:17;18.75;;;12.10;;
44766;SDS011;30487;48.716;9.272;2024-03-08T14:24:43;20.00;;;11.30;;
44766;SDS011;30487;48.716;9.272;2024-03-08T14:27:09;20.60;;;11.48;;
44766;SDS011;30487;48.716;9.272;2024-03-08T14:29:37;20.30;;;11.65;;